KMMK 101853Z AUTO 33009KT 10SM CLR 04/M08 A3009 RMK AO2 SLP191 T00391083